sensor_id;sensor_type;location;lat;lon;timestamp;pressure;altitude;pressure_sealevel;temperature;humidity
62374;BME280;48409;49.030;1.820;2023-02-28T00:00:07;101931.84;;;3.16;55.47
62374;BME280;48409;49.030;1.820;2023-02-28T00:02:44;101926.63;;;3.14;55.35
62374;BME280;48409;49.030;1.820;2023-02-28T00:05:10;101937.03;;;3.12;55.44
62374;BME280;48409;49.030;1.820;2023-02-28T00:07:36;101938.78;;;3.10;55.32
62374;BME280;48409;49.030;1.820;2023-02-28T00:10:02;101938.75;;;3.07;55.59
62374;BME280;48409;49.030;1.820;2023-02-28T00:12:28;101941.34;;;3.07;55.54
62374;BME280;48409;49.030;1.820;2023-02-28T00:14:53;101942.22;;;3.06;55.48
62374;BME280;48409;49.030;1.820;2023-02-28T00:17:19;101950.88;;;3.04;55.53
62374;BME280;48409;49.030;1.820;2023-02-28T00:19:46;101951.75;;;3.01;55.49
62374;BME280;48409;49.030;1.820;2023-02-28T00:22:12;101948.25;;;3.00;55.60
62374;BME280;48409;49.030;1.820;2023-02-28T00:24:37;101953.44;;;2.99;55.38
62374;BME280;48409;49.030;1.820;2023-02-28T00:27:02;101959.53;;;2.98;55.51
62374;BME280;48409;49.030;1.820;2023-02-28T00:29:28;101956.91;;;2.96;55.30
62374;BME280;48409;49.030;1.820;2023-02-28T00:31:53;101961.25;;;2.96;55.48
62374;BME280;48409;49.030;1.820;2023-02-28T00:34:18;101957.75;;;2.92;55.27
62374;BME280;48409;49.030;1.820;2023-02-28T00:36:43;101955.16;;;2.91;55.38
62374;BME280;48409;49.030;1.820;2023-02-28T00:39:11;101967.28;;;2.89;55.36
62374;BME280;48409;49.030;1.820;2023-02-28T00:41:36;101956.00;;;2.86;55.52
62374;BME280;48409;49.030;1.820;2023-02-28T00:44:02;101952.50;;;2.84;55.38
62374;BME280;48409;49.030;1.820;2023-02-28T00:46:27;101955.09;;;2.83;55.52
62374;BME280;48409;49.030;1.820;2023-02-28T00:48:52;101954.25;;;2.82;55.43
62374;BME280;48409;49.030;1.820;2023-02-28T00:51:18;101955.94;;;2.80;55.45
62374;BME280;48409;49.030;1.820;2023-02-28T00:53:43;101962.88;;;2.81;55.41
62374;BME280;48409;49.030;1.820;2023-02-28T00:56:08;101957.69;;;2.80;55.50
62374;BME280;48409;49.030;1.820;2023-02-28T00:58:33;101969.81;;;2.79;55.30
62374;BME280;48409;49.030;1.820;2023-02-28T01:00:59;101964.63;;;2.79;55.43
62374;BME280;48409;49.030;1.820;2023-02-28T01:03:24;101966.34;;;2.79;55.47
62374;BME280;48409;49.030;1.820;2023-02-28T01:05:50;101964.63;;;2.79;55.39
62374;BME280;48409;49.030;1.820;2023-02-28T01:08:15;101968.09;;;2.78;55.29
62374;BME280;48409;49.030;1.820;2023-02-28T01:10:40;101970.69;;;2.78;55.36
62374;BME280;48409;49.030;1.820;2023-02-28T01:13:06;101970.69;;;2.78;55.69
62374;BME280;48409;49.030;1.820;2023-02-28T01:15:32;101965.50;;;2.78;55.56
62374;BME280;48409;49.030;1.820;2023-02-28T01:17:57;101969.78;;;2.76;55.49
62374;BME280;48409;49.030;1.820;2023-02-28T01:20:23;101969.78;;;2.76;55.46
62374;BME280;48409;49.030;1.820;2023-02-28T01:22:48;101975.88;;;2.77;55.55
62374;BME280;48409;49.030;1.820;2023-02-28T01:25:13;101968.06;;;2.75;55.44
62374;BME280;48409;49.030;1.820;2023-02-28T01:27:39;101981.94;;;2.74;55.50
62374;BME280;48409;49.030;1.820;2023-02-28T01:30:05;101969.78;;;2.73;55.53
62374;BME280;48409;49.030;1.820;2023-02-28T01:32:30;101978.47;;;2.75;55.54
62374;BME280;48409;49.030;1.820;2023-02-28T01:34:55;101973.22;;;2.72;55.48
62374;BME280;48409;49.030;1.820;2023-02-28T01:37:20;101963.69;;;2.71;55.50
62374;BME280;48409;49.030;1.820;2023-02-28T01:39:46;101970.63;;;2.72;55.59
62374;BME280;48409;49.030;1.820;2023-02-28T01:42:11;101983.63;;;2.72;55.38
62374;BME280;48409;49.030;1.820;2023-02-28T01:47:20;101962.81;;;2.72;55.62
62374;BME280;48409;49.030;1.820;2023-02-28T01:49:46;101968.03;;;2.72;55.48
62374;BME280;48409;49.030;1.820;2023-02-28T01:52:12;101962.81;;;2.72;55.61
62374;BME280;48409;49.030;1.820;2023-02-28T01:54:43;101961.09;;;2.71;55.44
62374;BME280;48409;49.030;1.820;2023-02-28T01:57:12;101955.00;;;2.72;55.39
62374;BME280;48409;49.030;1.820;2023-02-28T01:59:43;101965.44;;;2.72;55.45
62374;BME280;48409;49.030;1.820;2023-02-28T02:02:14;101961.09;;;2.71;55.63
62374;BME280;48409;49.030;1.820;2023-02-28T02:04:41;101960.22;;;2.72;55.54
62374;BME280;48409;49.030;1.820;2023-02-28T02:07:11;101958.50;;;2.71;55.49
62374;BME280;48409;49.030;1.820;2023-02-28T02:09:37;101960.22;;;2.70;55.60
62374;BME280;48409;49.030;1.820;2023-02-28T02:12:10;101954.13;;;2.68;55.56
62374;BME280;48409;49.030;1.820;2023-02-28T02:14:48;101953.28;;;2.66;55.55
62374;BME280;48409;49.030;1.820;2023-02-28T02:17:20;101948.06;;;2.66;55.51
62374;BME280;48409;49.030;1.820;2023-02-28T02:25:10;101939.34;;;2.63;55.43
62374;BME280;48409;49.030;1.820;2023-02-28T02:43:29;101953.16;;;2.54;55.50
62374;BME280;48409;49.030;1.820;2023-02-28T02:46:31;101950.56;;;2.52;55.55
62374;BME280;48409;49.030;1.820;2023-02-28T02:48:49;101945.34;;;2.52;55.67
62374;BME280;48409;49.030;1.820;2023-02-28T02:51:16;101948.81;;;2.51;55.65
62374;BME280;48409;49.030;1.820;2023-02-28T02:53:47;101958.31;;;2.49;55.70
62374;BME280;48409;49.030;1.820;2023-02-28T02:56:14;101954.84;;;2.50;55.54
62374;BME280;48409;49.030;1.820;2023-02-28T02:58:41;101949.66;;;2.48;55.56
62374;BME280;48409;49.030;1.820;2023-02-28T03:01:08;101947.03;;;2.47;55.81
62374;BME280;48409;49.030;1.820;2023-02-28T03:03:35;101950.53;;;2.49;55.69
62374;BME280;48409;49.030;1.820;2023-02-28T03:06:00;101947.88;;;2.46;55.81
62374;BME280;48409;49.030;1.820;2023-02-28T03:08:28;101955.69;;;2.46;55.59
62374;BME280;48409;49.030;1.820;2023-02-28T03:11:03;101950.47;;;2.43;55.68
62374;BME280;48409;49.030;1.820;2023-02-28T03:13:34;101943.50;;;2.42;55.88
62374;BME280;48409;49.030;1.820;2023-02-28T03:21:53;101946.13;;;2.39;55.70
62374;BME280;48409;49.030;1.820;2023-02-28T03:26:42;101946.97;;;2.38;55.61
62374;BME280;48409;49.030;1.820;2023-02-28T03:29:15;101947.81;;;2.37;55.85
62374;BME280;48409;49.030;1.820;2023-02-28T03:31:48;101953.88;;;2.35;55.86
62374;BME280;48409;49.030;1.820;2023-02-28T03:34:50;101953.88;;;2.35;55.46
62374;BME280;48409;49.030;1.820;2023-02-28T03:37:11;101955.59;;;2.35;55.68
62374;BME280;48409;49.030;1.820;2023-02-28T03:39:39;101954.75;;;2.34;55.73
62374;BME280;48409;49.030;1.820;2023-02-28T03:42:09;101953.00;;;2.35;55.76
62374;BME280;48409;49.030;1.820;2023-02-28T03:44:38;101952.16;;;2.34;55.80
62374;BME280;48409;49.030;1.820;2023-02-28T03:47:09;101952.16;;;2.34;55.70
62374;BME280;48409;49.030;1.820;2023-02-28T03:49:43;101950.41;;;2.33;55.71
62374;BME280;48409;49.030;1.820;2023-02-28T03:52:10;101958.22;;;2.33;55.83
62374;BME280;48409;49.030;1.820;2023-02-28T03:54:38;101959.03;;;2.32;55.80
62374;BME280;48409;49.030;1.820;2023-02-28T03:57:07;101967.72;;;2.31;55.93
62374;BME280;48409;49.030;1.820;2023-02-28T03:59:43;101957.31;;;2.31;55.80
62374;BME280;48409;49.030;1.820;2023-02-28T04:02:09;101953.00;;;2.32;55.90
62374;BME280;48409;49.030;1.820;2023-02-28T04:04:34;101959.91;;;2.31;55.66
62374;BME280;48409;49.030;1.820;2023-02-28T04:07:04;101960.78;;;2.32;55.96
62374;BME280;48409;49.030;1.820;2023-02-28T04:09:29;101957.31;;;2.31;55.91
62374;BME280;48409;49.030;1.820;2023-02-28T04:11:55;101965.97;;;2.30;55.74
62374;BME280;48409;49.030;1.820;2023-02-28T04:14:23;101963.38;;;2.30;55.90
62374;BME280;48409;49.030;1.820;2023-02-28T04:16:49;101955.56;;;2.30;55.86
62374;BME280;48409;49.030;1.820;2023-02-28T04:19:15;101958.16;;;2.29;55.63
62374;BME280;48409;49.030;1.820;2023-02-28T04:21:42;101957.28;;;2.28;55.92
62374;BME280;48409;49.030;1.820;2023-02-28T04:24:08;101963.34;;;2.27;55.76
62374;BME280;48409;49.030;1.820;2023-02-28T04:26:38;101960.75;;;2.27;55.65
62374;BME280;48409;49.030;1.820;2023-02-28T04:29:04;101957.25;;;2.25;55.95
62374;BME280;48409;49.030;1.820;2023-02-28T04:31:30;101959.88;;;2.25;55.87
62374;BME280;48409;49.030;1.820;2023-02-28T04:33:55;101965.03;;;2.24;55.88
62374;BME280;48409;49.030;1.820;2023-02-28T04:36:21;101969.38;;;2.23;55.87
62374;BME280;48409;49.030;1.820;2023-02-28T04:38:47;101971.94;;;2.21;55.94
62374;BME280;48409;49.030;1.820;2023-02-28T04:41:13;101964.16;;;2.20;55.82
62374;BME280;48409;49.030;1.820;2023-02-28T04:43:38;101962.38;;;2.19;55.66
62374;BME280;48409;49.030;1.820;2023-02-28T04:46:04;101974.56;;;2.20;55.64
62374;BME280;48409;49.030;1.820;2023-02-28T04:48:30;101972.78;;;2.19;55.90
62374;BME280;48409;49.030;1.820;2023-02-28T04:50:59;101967.56;;;2.17;55.61
62374;BME280;48409;49.030;1.820;2023-02-28T04:53:25;101969.31;;;2.17;55.78
62374;BME280;48409;49.030;1.820;2023-02-28T04:55:50;101975.38;;;2.17;55.88
62374;BME280;48409;49.030;1.820;2023-02-28T04:58:15;101971.00;;;2.15;55.73
62374;BME280;48409;49.030;1.820;2023-02-28T05:00:41;101977.09;;;2.15;55.60
62374;BME280;48409;49.030;1.820;2023-02-28T05:03:06;101981.41;;;2.15;55.91
62374;BME280;48409;49.030;1.820;2023-02-28T05:05:32;101988.34;;;2.13;55.93
62374;BME280;48409;49.030;1.820;2023-02-28T05:07:57;101991.81;;;2.12;55.81
62374;BME280;48409;49.030;1.820;2023-02-28T05:10:22;101995.22;;;2.11;55.99
62374;BME280;48409;49.030;1.820;2023-02-28T05:12:48;101995.22;;;2.11;55.75
62374;BME280;48409;49.030;1.820;2023-02-28T05:15:14;102003.91;;;2.09;55.82
62374;BME280;48409;49.030;1.820;2023-02-28T05:17:39;101995.22;;;2.11;55.53
62374;BME280;48409;49.030;1.820;2023-02-28T05:20:05;102002.16;;;2.08;55.87
62374;BME280;48409;49.030;1.820;2023-02-28T05:22:30;101995.22;;;2.06;55.78
62374;BME280;48409;49.030;1.820;2023-02-28T05:24:56;101996.06;;;2.05;55.69
62374;BME280;48409;49.030;1.820;2023-02-28T05:27:21;102001.28;;;2.05;55.92
62374;BME280;48409;49.030;1.820;2023-02-28T05:29:46;101999.50;;;2.04;55.84
62374;BME280;48409;49.030;1.820;2023-02-28T05:32:12;102003.84;;;2.03;55.79
62374;BME280;48409;49.030;1.820;2023-02-28T05:34:38;102001.22;;;2.02;55.97
62374;BME280;48409;49.030;1.820;2023-02-28T05:37:03;101997.75;;;2.01;55.63
62374;BME280;48409;49.030;1.820;2023-02-28T05:39:29;102007.28;;;2.01;55.79
62374;BME280;48409;49.030;1.820;2023-02-28T05:41:54;102001.22;;;2.00;55.87
62374;BME280;48409;49.030;1.820;2023-02-28T05:44:19;102000.34;;;2.00;55.69
62374;BME280;48409;49.030;1.820;2023-02-28T05:46:44;101998.59;;;1.99;56.02
62374;BME280;48409;49.030;1.820;2023-02-28T05:49:10;102004.66;;;1.99;55.92
62374;BME280;48409;49.030;1.820;2023-02-28T05:51:35;101995.97;;;1.99;55.80
62374;BME280;48409;49.030;1.820;2023-02-28T05:54:01;101999.47;;;1.99;55.91
62374;BME280;48409;49.030;1.820;2023-02-28T05:56:26;102004.66;;;1.99;55.90
62374;BME280;48409;49.030;1.820;2023-02-28T05:58:52;102008.16;;;2.00;55.93
62374;BME280;48409;49.030;1.820;2023-02-28T06:03:48;102010.72;;;1.98;55.89
62374;BME280;48409;49.030;1.820;2023-02-28T06:06:14;102006.38;;;1.97;55.99
62374;BME280;48409;49.030;1.820;2023-02-28T06:08:39;102008.97;;;1.97;55.95
62374;BME280;48409;49.030;1.820;2023-02-28T06:11:04;102006.38;;;1.97;55.90
62374;BME280;48409;49.030;1.820;2023-02-28T06:13:30;102013.31;;;1.97;55.71
62374;BME280;48409;49.030;1.820;2023-02-28T06:15:55;102012.41;;;1.96;55.73
62374;BME280;48409;49.030;1.820;2023-02-28T06:18:20;102022.81;;;1.96;55.94
62374;BME280;48409;49.030;1.820;2023-02-28T06:20:52;102021.09;;;1.97;56.07
62374;BME280;48409;49.030;1.820;2023-02-28T06:23:18;102015.88;;;1.95;55.94
62374;BME280;48409;49.030;1.820;2023-02-28T06:25:44;102011.56;;;1.95;55.86
62374;BME280;48409;49.030;1.820;2023-02-28T06:28:10;102015.03;;;1.96;56.07
62374;BME280;48409;49.030;1.820;2023-02-28T06:30:36;102010.69;;;1.95;55.71
62374;BME280;48409;49.030;1.820;2023-02-28T06:33:01;102013.28;;;1.95;55.85
62374;BME280;48409;49.030;1.820;2023-02-28T06:35:27;102015.84;;;1.93;56.07
62374;BME280;48409;49.030;1.820;2023-02-28T06:37:52;102021.09;;;1.95;55.94
62374;BME280;48409;49.030;1.820;2023-02-28T06:40:17;102019.34;;;1.94;55.87
62374;BME280;48409;49.030;1.820;2023-02-28T06:42:43;102012.38;;;1.93;56.13
62374;BME280;48409;49.030;1.820;2023-02-28T06:45:09;102017.56;;;1.93;55.80
62374;BME280;48409;49.030;1.820;2023-02-28T06:47:35;102018.44;;;1.92;55.95
62374;BME280;48409;49.030;1.820;2023-02-28T06:50:01;102021.03;;;1.92;56.01
62374;BME280;48409;49.030;1.820;2023-02-28T06:52:27;102022.78;;;1.93;56.17
62374;BME280;48409;49.030;1.820;2023-02-28T06:54:52;102018.44;;;1.92;56.07
62374;BME280;48409;49.030;1.820;2023-02-28T06:57:26;102021.03;;;1.92;56.16
62374;BME280;48409;49.030;1.820;2023-02-28T06:59:52;102019.31;;;1.91;56.03
62374;BME280;48409;49.030;1.820;2023-02-28T07:02:17;102019.31;;;1.91;56.02
62374;BME280;48409;49.030;1.820;2023-02-28T07:04:42;102019.31;;;1.91;56.06
62374;BME280;48409;49.030;1.820;2023-02-28T07:07:09;102023.63;;;1.90;56.14
62374;BME280;48409;49.030;1.820;2023-02-28T07:09:34;102028.81;;;1.90;55.96
62374;BME280;48409;49.030;1.820;2023-02-28T07:12:00;102027.06;;;1.89;56.10
62374;BME280;48409;49.030;1.820;2023-02-28T07:14:25;102021.03;;;1.89;55.92
62374;BME280;48409;49.030;1.820;2023-02-28T07:16:51;102031.41;;;1.89;56.01
62374;BME280;48409;49.030;1.820;2023-02-28T07:19:16;102026.22;;;1.89;56.20
62374;BME280;48409;49.030;1.820;2023-02-28T07:21:41;102029.66;;;1.89;56.08
62374;BME280;48409;49.030;1.820;2023-02-28T07:24:07;102024.50;;;1.91;56.23
62374;BME280;48409;49.030;1.820;2023-02-28T07:26:32;102024.47;;;1.89;56.19
62374;BME280;48409;49.030;1.820;2023-02-28T07:28:59;102024.44;;;1.88;56.09
62374;BME280;48409;49.030;1.820;2023-02-28T07:31:24;102026.22;;;1.89;56.06
62374;BME280;48409;49.030;1.820;2023-02-28T07:33:49;102022.75;;;1.90;55.91
62374;BME280;48409;49.030;1.820;2023-02-28T07:36:16;102023.63;;;1.90;56.10
62374;BME280;48409;49.030;1.820;2023-02-28T07:38:43;102034.00;;;1.90;56.30
62374;BME280;48409;49.030;1.820;2023-02-28T07:41:09;102036.63;;;1.92;56.02
62374;BME280;48409;49.030;1.820;2023-02-28T07:43:34;102026.22;;;1.92;56.19
62374;BME280;48409;49.030;1.820;2023-02-28T07:46:07;102034.03;;;1.92;56.07
62374;BME280;48409;49.030;1.820;2023-02-28T07:48:33;102030.56;;;1.93;56.25
62374;BME280;48409;49.030;1.820;2023-02-28T07:50:59;102032.34;;;1.94;56.31
62374;BME280;48409;49.030;1.820;2023-02-28T07:53:25;102029.75;;;1.94;56.05
62374;BME280;48409;49.030;1.820;2023-02-28T07:55:50;102031.47;;;1.95;56.11
62374;BME280;48409;49.030;1.820;2023-02-28T07:58:18;102028.88;;;1.95;56.19
62374;BME280;48409;49.030;1.820;2023-02-28T08:00:47;102036.72;;;1.98;56.12
62374;BME280;48409;49.030;1.820;2023-02-28T08:03:12;102037.56;;;1.99;56.26
62374;BME280;48409;49.030;1.820;2023-02-28T08:05:38;102033.25;;;1.99;56.39
62374;BME280;48409;49.030;1.820;2023-02-28T08:08:04;102038.50;;;2.02;56.30
62374;BME280;48409;49.030;1.820;2023-02-28T08:12:57;102041.97;;;2.04;56.37
62374;BME280;48409;49.030;1.820;2023-02-28T08:15:22;102048.06;;;2.05;56.47
62374;BME280;48409;49.030;1.820;2023-02-28T08:17:50;102039.41;;;2.06;56.42
62374;BME280;48409;49.030;1.820;2023-02-28T08:20:15;102052.41;;;2.07;56.31
62374;BME280;48409;49.030;1.820;2023-02-28T08:22:46;102056.78;;;2.10;56.53
62374;BME280;48409;49.030;1.820;2023-02-28T08:25:11;102059.41;;;2.12;56.55
62374;BME280;48409;49.030;1.820;2023-02-28T08:27:36;102056.81;;;2.13;56.39
62374;BME280;48409;49.030;1.820;2023-02-28T08:30:02;102057.66;;;2.14;56.43
62374;BME280;48409;49.030;1.820;2023-02-28T08:32:28;102061.19;;;2.16;56.49
62374;BME280;48409;49.030;1.820;2023-02-28T08:34:53;102061.16;;;2.17;56.39
62374;BME280;48409;49.030;1.820;2023-02-28T08:37:18;102058.56;;;2.17;56.52
62374;BME280;48409;49.030;1.820;2023-02-28T08:39:44;102058.59;;;2.19;56.63
62374;BME280;48409;49.030;1.820;2023-02-28T08:42:09;102063.84;;;2.22;56.52
62374;BME280;48409;49.030;1.820;2023-02-28T08:44:34;102065.56;;;2.23;56.68
62374;BME280;48409;49.030;1.820;2023-02-28T08:46:59;102060.38;;;2.25;56.49
62374;BME280;48409;49.030;1.820;2023-02-28T08:49:25;102064.75;;;2.27;56.78
62374;BME280;48409;49.030;1.820;2023-02-28T08:51:50;102060.44;;;2.28;56.60
62374;BME280;48409;49.030;1.820;2023-02-28T08:54:15;102063.06;;;2.29;56.65
62374;BME280;48409;49.030;1.820;2023-02-28T08:56:44;102058.72;;;2.30;56.54
62374;BME280;48409;49.030;1.820;2023-02-28T08:59:09;102067.44;;;2.33;56.57
62374;BME280;48409;49.030;1.820;2023-02-28T09:01:35;102065.72;;;2.35;56.78
62374;BME280;48409;49.030;1.820;2023-02-28T09:04:01;102070.06;;;2.38;56.60
62374;BME280;48409;49.030;1.820;2023-02-28T09:06:27;102074.41;;;2.41;56.91
62374;BME280;48409;49.030;1.820;2023-02-28T09:08:52;102062.31;;;2.41;56.90
62374;BME280;48409;49.030;1.820;2023-02-28T09:11:19;102071.88;;;2.44;56.61
62374;BME280;48409;49.030;1.820;2023-02-28T09:13:44;102073.63;;;2.48;56.88
62374;BME280;48409;49.030;1.820;2023-02-28T09:16:11;102074.53;;;2.52;56.79
62374;BME280;48409;49.030;1.820;2023-02-28T09:18:37;102072.84;;;2.57;57.14
62374;BME280;48409;49.030;1.820;2023-02-28T09:21:03;102066.84;;;2.63;57.33
62374;BME280;48409;49.030;1.820;2023-02-28T09:23:29;102069.50;;;2.70;57.34
62374;BME280;48409;49.030;1.820;2023-02-28T09:25:55;102073.88;;;2.76;57.62
62374;BME280;48409;49.030;1.820;2023-02-28T09:28:20;102072.22;;;2.84;57.33
62374;BME280;48409;49.030;1.820;2023-02-28T09:30:47;102068.81;;;2.92;57.88
62374;BME280;48409;49.030;1.820;2023-02-28T09:33:13;102069.75;;;3.02;57.94
62374;BME280;48409;49.030;1.820;2023-02-28T09:35:39;102070.69;;;3.11;58.06
62374;BME280;48409;49.030;1.820;2023-02-28T09:38:06;102063.81;;;3.20;58.03
62374;BME280;48409;49.030;1.820;2023-02-28T09:40:34;102074.31;;;3.32;57.87
62374;BME280;48409;49.030;1.820;2023-02-28T09:43:01;102061.34;;;3.42;58.16
62374;BME280;48409;49.030;1.820;2023-02-28T09:45:31;102065.75;;;3.52;58.23
62374;BME280;48409;49.030;1.820;2023-02-28T09:48:06;102051.91;;;3.62;58.46
62374;BME280;48409;49.030;1.820;2023-02-28T09:50:37;102044.16;;;3.73;58.16
62374;BME280;48409;49.030;1.820;2023-02-28T09:53:05;102046.81;;;3.84;58.39
62374;BME280;48409;49.030;1.820;2023-02-28T09:55:37;102048.56;;;3.96;58.55
62374;BME280;48409;49.030;1.820;2023-02-28T09:58:04;102046.00;;;4.05;58.51
62374;BME280;48409;49.030;1.820;2023-02-28T10:00:32;102052.09;;;4.18;58.56
62374;BME280;48409;49.030;1.820;2023-02-28T10:05:39;102046.94;;;4.40;58.63
62374;BME280;48409;49.030;1.820;2023-02-28T10:10:39;102054.78;;;4.62;58.89
62374;BME280;48409;49.030;1.820;2023-02-28T10:13:06;102059.16;;;4.73;58.91
62374;BME280;48409;49.030;1.820;2023-02-28T10:15:37;102049.56;;;4.84;58.76
62374;BME280;48409;49.030;1.820;2023-02-28T10:18:04;102050.44;;;4.95;58.93
62374;BME280;48409;49.030;1.820;2023-02-28T10:20:31;102034.78;;;5.05;59.09
62374;BME280;48409;49.030;1.820;2023-02-28T10:23:02;102038.22;;;5.16;59.12
62374;BME280;48409;49.030;1.820;2023-02-28T10:25:33;102029.50;;;5.28;59.23
62374;BME280;48409;49.030;1.820;2023-02-28T10:28:07;102037.31;;;5.39;59.09
62374;BME280;48409;49.030;1.820;2023-02-28T10:30:35;102035.53;;;5.52;59.34
62374;BME280;48409;49.030;1.820;2023-02-28T10:33:01;102046.84;;;5.62;59.35
62374;BME280;48409;49.030;1.820;2023-02-28T10:35:27;102027.59;;;5.72;59.26
62374;BME280;48409;49.030;1.820;2023-02-28T10:37:56;102032.78;;;5.82;59.32
62374;BME280;48409;49.030;1.820;2023-02-28T10:45:32;102017.84;;;6.10;59.15
62374;BME280;48409;49.030;1.820;2023-02-28T10:55:56;102011.56;;;6.38;58.90
62374;BME280;48409;49.030;1.820;2023-02-28T10:58:25;102002.81;;;6.42;58.93
62374;BME280;48409;49.030;1.820;2023-02-28T11:00:51;102009.78;;;6.46;58.82
62374;BME280;48409;49.030;1.820;2023-02-28T11:03:38;102027.19;;;6.50;58.60
62374;BME280;48409;49.030;1.820;2023-02-28T11:06:14;102007.97;;;6.55;58.73
62374;BME280;48409;49.030;1.820;2023-02-28T11:08:53;101993.94;;;6.59;58.47
62374;BME280;48409;49.030;1.820;2023-02-28T11:11:20;101992.19;;;6.61;58.42
62374;BME280;48409;49.030;1.820;2023-02-28T11:13:46;101989.56;;;6.64;58.61
62374;BME280;48409;49.030;1.820;2023-02-28T11:16:12;101992.13;;;6.67;58.42
62374;BME280;48409;49.030;1.820;2023-02-28T11:18:48;101985.16;;;6.69;58.27
62374;BME280;48409;49.030;1.820;2023-02-28T11:21:19;101977.28;;;6.72;58.21
62374;BME280;48409;49.030;1.820;2023-02-28T11:23:52;101972.88;;;6.73;58.24
62374;BME280;48409;49.030;1.820;2023-02-28T11:29:31;101971.06;;;6.79;57.91
62374;BME280;48409;49.030;1.820;2023-02-28T11:32:11;101962.31;;;6.81;57.97
62374;BME280;48409;49.030;1.820;2023-02-28T11:34:37;101960.56;;;6.83;58.00
62374;BME280;48409;49.030;1.820;2023-02-28T11:37:09;101954.47;;;6.82;57.79
62374;BME280;48409;49.030;1.820;2023-02-28T11:39:39;101947.47;;;6.83;57.85
62374;BME280;48409;49.030;1.820;2023-02-28T11:45:14;101941.38;;;6.82;57.48
62374;BME280;48409;49.030;1.820;2023-02-28T11:47:48;101937.00;;;6.83;57.49
62374;BME280;48409;49.030;1.820;2023-02-28T11:55:17;101931.78;;;6.81;57.26
62374;BME280;48409;49.030;1.820;2023-02-28T12:26:48;101897.06;;;6.60;56.70
62374;BME280;48409;49.030;1.820;2023-02-28T12:32:26;101883.13;;;6.58;56.74
62374;BME280;48409;49.030;1.820;2023-02-28T12:34:44;101874.47;;;6.55;56.69
62374;BME280;48409;49.030;1.820;2023-02-28T12:37:14;101878.81;;;6.52;56.38
62374;BME280;48409;49.030;1.820;2023-02-28T12:39:42;101870.97;;;6.52;56.39
62374;BME280;48409;49.030;1.820;2023-02-28T12:42:19;101870.97;;;6.51;56.66
62374;BME280;48409;49.030;1.820;2023-02-28T12:44:49;101865.75;;;6.51;56.54
62374;BME280;48409;49.030;1.820;2023-02-28T12:47:17;101866.66;;;6.48;56.30
62374;BME280;48409;49.030;1.820;2023-02-28T12:52:44;101865.81;;;6.46;56.51
62374;BME280;48409;49.030;1.820;2023-02-28T12:55:14;101846.59;;;6.46;56.46
62374;BME280;48409;49.030;1.820;2023-02-28T12:57:43;101852.72;;;6.46;56.45
62374;BME280;48409;49.030;1.820;2023-02-28T13:00:13;101850.97;;;6.45;56.56
62374;BME280;48409;49.030;1.820;2023-02-28T13:10:37;101831.78;;;6.46;56.24
62374;BME280;48409;49.030;1.820;2023-02-28T13:13:03;101833.50;;;6.46;56.37
62374;BME280;48409;49.030;1.820;2023-02-28T13:15:28;101832.63;;;6.45;56.22
62374;BME280;48409;49.030;1.820;2023-02-28T13:17:55;101835.25;;;6.45;56.35
62374;BME280;48409;49.030;1.820;2023-02-28T13:20:23;101831.78;;;6.46;56.18
62374;BME280;48409;49.030;1.820;2023-02-28T13:22:49;101824.78;;;6.45;56.37
62374;BME280;48409;49.030;1.820;2023-02-28T13:27:46;101828.28;;;6.44;56.14
62374;BME280;48409;49.030;1.820;2023-02-28T13:35:43;101815.22;;;6.41;55.95
62374;BME280;48409;49.030;1.820;2023-02-28T13:38:17;101810.88;;;6.40;56.06
62374;BME280;48409;49.030;1.820;2023-02-28T13:40:46;101814.41;;;6.39;56.19
62374;BME280;48409;49.030;1.820;2023-02-28T13:43:12;101814.41;;;6.39;55.91
62374;BME280;48409;49.030;1.820;2023-02-28T13:45:44;101814.41;;;6.37;56.08
62374;BME280;48409;49.030;1.820;2023-02-28T13:48:27;101813.50;;;6.38;55.92
62374;BME280;48409;49.030;1.820;2023-02-28T13:50:53;101816.19;;;6.37;55.87
62374;BME280;48409;49.030;1.820;2023-02-28T13:53:24;101810.06;;;6.36;55.98
62374;BME280;48409;49.030;1.820;2023-02-28T14:06:22;101813.59;;;6.34;55.93
62374;BME280;48409;49.030;1.820;2023-02-28T14:08:53;101811.88;;;6.31;55.88
62374;BME280;48409;49.030;1.820;2023-02-28T14:11:40;101807.47;;;6.32;55.90
62374;BME280;48409;49.030;1.820;2023-02-28T14:14:05;101817.94;;;6.32;55.93
62374;BME280;48409;49.030;1.820;2023-02-28T14:16:40;101804.00;;;6.31;55.90
62374;BME280;48409;49.030;1.820;2023-02-28T14:19:15;101797.06;;;6.29;55.88
62374;BME280;48409;49.030;1.820;2023-02-28T14:27:21;101812.75;;;6.29;55.79
62374;BME280;48409;49.030;1.820;2023-02-28T14:34:54;101808.38;;;6.29;55.69
62374;BME280;48409;49.030;1.820;2023-02-28T14:37:26;101804.03;;;6.26;55.78
62374;BME280;48409;49.030;1.820;2023-02-28T14:39:52;101801.44;;;6.26;55.61
62374;BME280;48409;49.030;1.820;2023-02-28T14:42:33;101800.53;;;6.27;55.67
62374;BME280;48409;49.030;1.820;2023-02-28T14:44:59;101800.53;;;6.27;55.57
62374;BME280;48409;49.030;1.820;2023-02-28T14:47:27;101798.81;;;6.26;55.63
62374;BME280;48409;49.030;1.820;2023-02-28T14:49:53;101794.47;;;6.27;55.81
62374;BME280;48409;49.030;1.820;2023-02-28T14:52:20;101797.06;;;6.29;55.74
62374;BME280;48409;49.030;1.820;2023-02-28T14:54:46;101797.06;;;6.29;55.82
62374;BME280;48409;49.030;1.820;2023-02-28T14:57:26;101786.59;;;6.29;55.85
62374;BME280;48409;49.030;1.820;2023-02-28T15:02:24;101792.66;;;6.31;55.81
62374;BME280;48409;49.030;1.820;2023-02-28T15:04:57;101790.91;;;6.33;55.81
62374;BME280;48409;49.030;1.820;2023-02-28T15:07:23;101786.53;;;6.33;55.61
62374;BME280;48409;49.030;1.820;2023-02-28T15:10:15;101791.75;;;6.33;55.82
62374;BME280;48409;49.030;1.820;2023-02-28T15:12:41;101789.16;;;6.33;55.91
62374;BME280;48409;49.030;1.820;2023-02-28T15:15:14;101787.41;;;6.34;55.84
62374;BME280;48409;49.030;1.820;2023-02-28T15:17:40;101793.47;;;6.36;55.87
62374;BME280;48409;49.030;1.820;2023-02-28T15:20:10;101796.97;;;6.38;55.77
62374;BME280;48409;49.030;1.820;2023-02-28T15:22:36;101799.56;;;6.38;55.80